sensor_id;sensor_type;location;lat;lon;timestamp;pressure;altitude;pressure_sealevel;temperature;humidity
41596;BME280;27283;52.504;13.358;2024-01-15T00:01:45;98987.06;;;2.56;90.20
41596;BME280;27283;52.504;13.358;2024-01-15T00:04:21;98980.25;;;2.01;92.28
41596;BME280;27283;52.504;13.358;2024-01-15T00:06:53;98966.91;;;1.66;94.38
41596;BME280;27283;52.504;13.358;2024-01-15T00:09:25;98961.97;;;2.16;92.96
41596;BME280;27283;52.504;13.358;2024-01-15T00:11:58;98950.84;;;1.68;94.02
41596;BME280;27283;52.504;13.358;2024-01-15T00:14:30;98962.06;;;2.06;93.20
41596;BME280;27283;52.504;13.358;2024-01-15T00:17:05;98941.13;;;2.21;93.07
41596;BME280;27283;52.504;13.358;2024-01-15T00:19:38;98954.16;;;2.14;92.31
41596;BME280;27283;52.504;13.358;2024-01-15T00:22:10;98946.16;;;2.06;93.17
41596;BME280;27283;52.504;13.358;2024-01-15T00:24:42;98937.47;;;2.22;92.29
41596;BME280;27283;52.504;13.358;2024-01-15T00:27:15;98941.97;;;2.56;91.12
41596;BME280;27283;52.504;13.358;2024-01-15T00:29:46;98935.84;;;2.29;90.32
41596;BME280;27283;52.504;13.358;2024-01-15T00:32:22;98933.72;;;2.06;91.63
41596;BME280;27283;52.504;13.358;2024-01-15T00:34:54;98916.13;;;1.97;92.19
41596;BME280;27283;52.504;13.358;2024-01-15T00:37:26;98906.84;;;2.27;91.17
41596;BME280;27283;52.504;13.358;2024-01-15T00:39:58;98904.63;;;1.88;90.83
41596;BME280;27283;52.504;13.358;2024-01-15T00:42:31;98899.78;;;2.44;90.70
41596;BME280;27283;52.504;13.358;2024-01-15T00:45:07;98895.50;;;2.43;89.29
41596;BME280;27283;52.504;13.358;2024-01-15T00:47:42;98902.63;;;2.08;89.95
41596;BME280;27283;52.504;13.358;2024-01-15T00:50:13;98893.34;;;2.12;89.92
41596;BME280;27283;52.504;13.358;2024-01-15T00:52:46;98887.63;;;2.25;88.74
41596;BME280;27283;52.504;13.358;2024-01-15T00:55:17;98894.22;;;1.69;90.62
41596;BME280;27283;52.504;13.358;2024-01-15T00:57:55;98892.53;;;1.86;90.58
41596;BME280;27283;52.504;13.358;2024-01-15T01:00:26;98890.19;;;2.43;89.33
41596;BME280;27283;52.504;13.358;2024-01-15T01:03:01;98885.03;;;2.42;88.28
41596;BME280;27283;52.504;13.358;2024-01-15T01:05:33;98889.19;;;2.44;89.25
41596;BME280;27283;52.504;13.358;2024-01-15T01:08:06;98878.75;;;1.82;91.90
41596;BME280;27283;52.504;13.358;2024-01-15T01:10:38;98878.84;;;1.99;91.54
41596;BME280;27283;52.504;13.358;2024-01-15T01:13:11;98880.84;;;1.97;91.39
41596;BME280;27283;52.504;13.358;2024-01-15T01:15:43;98879.63;;;1.91;92.35
41596;BME280;27283;52.504;13.358;2024-01-15T01:18:18;98883.72;;;1.59;94.38
41596;BME280;27283;52.504;13.358;2024-01-15T01:20:50;98875.03;;;1.31;96.20
41596;BME280;27283;52.504;13.358;2024-01-15T01:23:23;98883.81;;;1.31;96.53
41596;BME280;27283;52.504;13.358;2024-01-15T01:25:55;98882.97;;;1.49;96.01
41596;BME280;27283;52.504;13.358;2024-01-15T01:28:28;98892.66;;;1.58;96.84
41596;BME280;27283;52.504;13.358;2024-01-15T01:31:00;98890.47;;;1.35;97.21
41596;BME280;27283;52.504;13.358;2024-01-15T01:33:37;98886.69;;;1.82;96.57
41596;BME280;27283;52.504;13.358;2024-01-15T01:36:10;98888.00;;;1.60;96.09
41596;BME280;27283;52.504;13.358;2024-01-15T01:38:42;98879.41;;;1.40;97.72
41596;BME280;27283;52.504;13.358;2024-01-15T01:41:14;98876.16;;;1.46;96.63
41596;BME280;27283;52.504;13.358;2024-01-15T01:43:46;98878.81;;;1.28;96.74
41596;BME280;27283;52.504;13.358;2024-01-15T01:46:18;98881.63;;;1.09;99.55
41596;BME280;27283;52.504;13.358;2024-01-15T01:48:53;98887.53;;;1.02;100.00
41596;BME280;27283;52.504;13.358;2024-01-15T01:51:27;98886.56;;;1.21;100.00
41596;BME280;27283;52.504;13.358;2024-01-15T01:53:59;98888.06;;;1.06;100.00
41596;BME280;27283;52.504;13.358;2024-01-15T01:56:31;98877.63;;;1.04;100.00
41596;BME280;27283;52.504;13.358;2024-01-15T01:59:04;98872.94;;;1.16;100.00
41596;BME280;27283;52.504;13.358;2024-01-15T02:01:38;98863.63;;;1.30;100.00
41596;BME280;27283;52.504;13.358;2024-01-15T02:04:14;98862.72;;;1.21;100.00
41596;BME280;27283;52.504;13.358;2024-01-15T02:06:50;98854.38;;;1.34;100.00
41596;BME280;27283;52.504;13.358;2024-01-15T02:09:22;98852.91;;;1.14;99.58
41596;BME280;27283;52.504;13.358;2024-01-15T02:11:54;98858.03;;;1.33;98.74
41596;BME280;27283;52.504;13.358;2024-01-15T02:14:26;98853.66;;;1.24;98.61
41596;BME280;27283;52.504;13.358;2024-01-15T02:16:59;98855.53;;;1.32;97.52
41596;BME280;27283;52.504;13.358;2024-01-15T02:19:34;98857.28;;;1.05;98.88
41596;BME280;27283;52.504;13.358;2024-01-15T02:22:08;98861.59;;;0.88;98.09
41596;BME280;27283;52.504;13.358;2024-01-15T02:24:43;98859.63;;;0.90;97.35
41596;BME280;27283;52.504;13.358;2024-01-15T02:27:15;98859.31;;;0.93;96.65
41596;BME280;27283;52.504;13.358;2024-01-15T02:29:48;98858.50;;;1.29;95.76
41596;BME280;27283;52.504;13.358;2024-01-15T02:32:21;98848.25;;;1.34;94.92
41596;BME280;27283;52.504;13.358;2024-01-15T02:34:53;98844.28;;;1.56;94.57
41596;BME280;27283;52.504;13.358;2024-01-15T02:37:24;98846.78;;;1.57;93.74
41596;BME280;27283;52.504;13.358;2024-01-15T02:39:59;98846.03;;;1.47;93.75
41596;BME280;27283;52.504;13.358;2024-01-15T02:42:32;98845.47;;;1.17;94.38
41596;BME280;27283;52.504;13.358;2024-01-15T02:45:04;98845.75;;;1.32;93.42
41596;BME280;27283;52.504;13.358;2024-01-15T02:47:36;98839.81;;;1.12;93.49
41596;BME280;27283;52.504;13.358;2024-01-15T02:50:09;98836.53;;;1.36;94.33
41596;BME280;27283;52.504;13.358;2024-01-15T02:52:41;98841.97;;;1.53;93.40
41596;BME280;27283;52.504;13.358;2024-01-15T02:55:16;98842.34;;;1.40;93.31
41596;BME280;27283;52.504;13.358;2024-01-15T02:57:48;98838.16;;;1.55;92.72
41596;BME280;27283;52.504;13.358;2024-01-15T03:00:20;98843.41;;;1.47;92.92
41596;BME280;27283;52.504;13.358;2024-01-15T03:02:52;98832.91;;;1.64;92.23
41596;BME280;27283;52.504;13.358;2024-01-15T03:05:24;98837.03;;;1.84;91.80
41596;BME280;27283;52.504;13.358;2024-01-15T03:07:56;98834.16;;;1.51;91.61
41596;BME280;27283;52.504;13.358;2024-01-15T03:10:30;98838.34;;;1.36;92.49
41596;BME280;27283;52.504;13.358;2024-01-15T03:13:02;98834.22;;;1.15;92.46
41596;BME280;27283;52.504;13.358;2024-01-15T03:15:34;98823.09;;;1.56;92.77
41596;BME280;27283;52.504;13.358;2024-01-15T03:18:06;98821.88;;;1.24;91.51
41596;BME280;27283;52.504;13.358;2024-01-15T03:20:39;98821.38;;;1.73;90.43
41596;BME280;27283;52.504;13.358;2024-01-15T03:23:11;98813.84;;;1.86;90.58
41596;BME280;27283;52.504;13.358;2024-01-15T03:25:45;98819.59;;;1.29;91.09
41596;BME280;27283;52.504;13.358;2024-01-15T03:28:17;98817.06;;;1.46;91.46
41596;BME280;27283;52.504;13.358;2024-01-15T03:30:50;98821.69;;;1.44;89.84
41596;BME280;27283;52.504;13.358;2024-01-15T03:33:22;98817.88;;;1.46;89.78
41596;BME280;27283;52.504;13.358;2024-01-15T03:35:55;98822.53;;;1.70;89.26
41596;BME280;27283;52.504;13.358;2024-01-15T03:38:28;98815.66;;;1.59;89.94
41596;BME280;27283;52.504;13.358;2024-01-15T03:41:04;98816.59;;;1.24;90.06
41596;BME280;27283;52.504;13.358;2024-01-15T03:43:36;98809.59;;;1.67;89.41
41596;BME280;27283;52.504;13.358;2024-01-15T03:46:09;98806.13;;;1.67;88.04
41596;BME280;27283;52.504;13.358;2024-01-15T03:48:41;98803.34;;;1.76;88.45
41596;BME280;27283;52.504;13.358;2024-01-15T03:51:17;98804.50;;;1.74;88.55
41596;BME280;27283;52.504;13.358;2024-01-15T03:53:49;98798.09;;;1.85;88.31
41596;BME280;27283;52.504;13.358;2024-01-15T03:56:24;98789.84;;;1.09;88.60
41596;BME280;27283;52.504;13.358;2024-01-15T03:58:56;98790.75;;;1.44;88.93
41596;BME280;27283;52.504;13.358;2024-01-15T04:01:29;98787.19;;;1.88;88.34
41596;BME280;27283;52.504;13.358;2024-01-15T04:04:01;98779.56;;;1.85;87.66
41596;BME280;27283;52.504;13.358;2024-01-15T04:06:34;98775.31;;;2.00;87.38
41596;BME280;27283;52.504;13.358;2024-01-15T04:09:06;98763.69;;;1.32;89.26
41596;BME280;27283;52.504;13.358;2024-01-15T04:11:41;98775.19;;;1.49;88.93
41596;BME280;27283;52.504;13.358;2024-01-15T04:14:13;98766.44;;;1.49;88.89
41596;BME280;27283;52.504;13.358;2024-01-15T04:16:46;98767.91;;;1.77;88.28
41596;BME280;27283;52.504;13.358;2024-01-15T04:19:18;98767.88;;;1.69;87.74
41596;BME280;27283;52.504;13.358;2024-01-15T04:21:50;98762.91;;;1.66;88.13
41596;BME280;27283;52.504;13.358;2024-01-15T04:24:23;98758.38;;;1.32;88.47
41596;BME280;27283;52.504;13.358;2024-01-15T04:26:58;98764.94;;;1.81;87.06
41596;BME280;27283;52.504;13.358;2024-01-15T04:29:30;98766.69;;;1.37;86.94
41596;BME280;27283;52.504;13.358;2024-01-15T04:32:07;98770.78;;;1.58;87.51
41596;BME280;27283;52.504;13.358;2024-01-15T04:34:39;98771.84;;;2.00;86.42
41596;BME280;27283;52.504;13.358;2024-01-15T04:37:13;98767.34;;;2.00;85.89
41596;BME280;27283;52.504;13.358;2024-01-15T04:39:45;98776.25;;;1.91;85.57
41596;BME280;27283;52.504;13.358;2024-01-15T04:42:21;98765.31;;;1.86;86.18
41596;BME280;27283;52.504;13.358;2024-01-15T04:44:53;98754.47;;;1.71;86.70
41596;BME280;27283;52.504;13.358;2024-01-15T04:47:25;98753.47;;;1.72;86.53
41596;BME280;27283;52.504;13.358;2024-01-15T04:49:57;98749.78;;;1.99;84.78
41596;BME280;27283;52.504;13.358;2024-01-15T04:52:30;98737.16;;;1.93;85.79
41596;BME280;27283;52.504;13.358;2024-01-15T04:55:02;98732.16;;;1.47;85.81
41596;BME280;27283;52.504;13.358;2024-01-15T04:57:37;98737.25;;;1.40;86.00
41596;BME280;27283;52.504;13.358;2024-01-15T05:00:12;98734.97;;;1.80;85.76
41596;BME280;27283;52.504;13.358;2024-01-15T05:02:49;98746.94;;;1.84;84.70
41596;BME280;27283;52.504;13.358;2024-01-15T05:05:21;98748.69;;;1.41;85.62
41596;BME280;27283;52.504;13.358;2024-01-15T05:07:54;98745.97;;;1.59;84.18
41596;BME280;27283;52.504;13.358;2024-01-15T05:10:26;98745.13;;;1.58;84.40
41596;BME280;27283;52.504;13.358;2024-01-15T05:13:01;98737.16;;;1.85;84.34
41596;BME280;27283;52.504;13.358;2024-01-15T05:15:33;98748.88;;;1.82;84.39
41596;BME280;27283;52.504;13.358;2024-01-15T05:18:06;98731.78;;;1.76;86.26
41596;BME280;27283;52.504;13.358;2024-01-15T05:20:38;98735.25;;;2.11;84.51
41596;BME280;27283;52.504;13.358;2024-01-15T05:23:11;98737.22;;;1.67;85.95
41596;BME280;27283;52.504;13.358;2024-01-15T05:25:43;98748.41;;;1.87;85.80
41596;BME280;27283;52.504;13.358;2024-01-15T05:28:18;98750.00;;;1.71;86.04
41596;BME280;27283;52.504;13.358;2024-01-15T05:30:54;98745.38;;;1.73;86.26
41596;BME280;27283;52.504;13.358;2024-01-15T05:33:27;98723.44;;;1.55;86.21
41596;BME280;27283;52.504;13.358;2024-01-15T05:35:59;98721.66;;;1.64;86.29
41596;BME280;27283;52.504;13.358;2024-01-15T05:38:32;98715.31;;;1.99;85.35
41596;BME280;27283;52.504;13.358;2024-01-15T05:41:05;98712.06;;;2.22;83.93
41596;BME280;27283;52.504;13.358;2024-01-15T05:43:40;98708.22;;;2.00;83.21
41596;BME280;27283;52.504;13.358;2024-01-15T05:46:12;98734.09;;;1.71;84.29
41596;BME280;27283;52.504;13.358;2024-01-15T05:48:45;98721.91;;;1.87;84.59
41596;BME280;27283;52.504;13.358;2024-01-15T05:51:17;98717.47;;;1.95;84.25
41596;BME280;27283;52.504;13.358;2024-01-15T05:53:50;98714.97;;;1.86;85.77
41596;BME280;27283;52.504;13.358;2024-01-15T05:56:22;98724.13;;;2.08;85.37
41596;BME280;27283;52.504;13.358;2024-01-15T05:58:57;98730.16;;;1.75;87.91
41596;BME280;27283;52.504;13.358;2024-01-15T06:01:30;98722.22;;;1.15;89.78
41596;BME280;27283;52.504;13.358;2024-01-15T06:04:03;98733.28;;;1.71;89.85
41596;BME280;27283;52.504;13.358;2024-01-15T06:06:36;98728.63;;;1.65;88.78
41596;BME280;27283;52.504;13.358;2024-01-15T06:09:08;98739.78;;;1.50;89.21
41596;BME280;27283;52.504;13.358;2024-01-15T06:11:41;98725.69;;;1.76;89.06
41596;BME280;27283;52.504;13.358;2024-01-15T06:14:16;98721.94;;;1.95;88.43
41596;BME280;27283;52.504;13.358;2024-01-15T06:16:50;98714.59;;;1.81;87.99
41596;BME280;27283;52.504;13.358;2024-01-15T06:19:22;98719.13;;;1.97;86.84
41596;BME280;27283;52.504;13.358;2024-01-15T06:21:55;98718.34;;;1.62;87.62
41596;BME280;27283;52.504;13.358;2024-01-15T06:24:28;98720.09;;;1.87;86.45
41596;BME280;27283;52.504;13.358;2024-01-15T06:27:00;98716.66;;;1.61;86.22
41596;BME280;27283;52.504;13.358;2024-01-15T06:29:37;98727.50;;;1.41;87.54
41596;BME280;27283;52.504;13.358;2024-01-15T06:32:11;98724.03;;;1.40;89.18
41596;BME280;27283;52.504;13.358;2024-01-15T06:34:44;98726.44;;;1.34;89.71
41596;BME280;27283;52.504;13.358;2024-01-15T06:37:16;98716.84;;;1.67;88.57
41596;BME280;27283;52.504;13.358;2024-01-15T06:39:49;98715.56;;;1.71;88.83
41596;BME280;27283;52.504;13.358;2024-01-15T06:42:22;98713.72;;;1.72;88.72
41596;BME280;27283;52.504;13.358;2024-01-15T06:45:02;98726.50;;;2.19;87.50
41596;BME280;27283;52.504;13.358;2024-01-15T06:47:34;98712.50;;;2.01;87.37
41596;BME280;27283;52.504;13.358;2024-01-15T06:50:07;98722.50;;;2.23;87.02
41596;BME280;27283;52.504;13.358;2024-01-15T06:52:39;98725.31;;;2.13;86.41
41596;BME280;27283;52.504;13.358;2024-01-15T06:55:17;98731.53;;;1.96;86.51
41596;BME280;27283;52.504;13.358;2024-01-15T06:57:48;98746.25;;;1.82;87.07
41596;BME280;27283;52.504;13.358;2024-01-15T07:00:23;98721.78;;;1.97;86.37
41596;BME280;27283;52.504;13.358;2024-01-15T07:02:56;98723.44;;;1.98;85.59
41596;BME280;27283;52.504;13.358;2024-01-15T07:05:28;98709.91;;;2.17;84.78
41596;BME280;27283;52.504;13.358;2024-01-15T07:08:01;98730.91;;;2.02;84.85
41596;BME280;27283;52.504;13.358;2024-01-15T07:10:33;98732.31;;;1.80;84.98
41596;BME280;27283;52.504;13.358;2024-01-15T07:13:05;98721.00;;;2.12;84.07
41596;BME280;27283;52.504;13.358;2024-01-15T07:15:41;98741.19;;;2.05;83.16
41596;BME280;27283;52.504;13.358;2024-01-15T07:18:14;98736.69;;;1.98;84.03
41596;BME280;27283;52.504;13.358;2024-01-15T07:20:47;98736.91;;;2.12;83.31
41596;BME280;27283;52.504;13.358;2024-01-15T07:23:21;98755.84;;;2.26;82.21
41596;BME280;27283;52.504;13.358;2024-01-15T07:25:58;98750.41;;;1.85;83.52
41596;BME280;27283;52.504;13.358;2024-01-15T07:28:31;98766.38;;;2.01;82.93
41596;BME280;27283;52.504;13.358;2024-01-15T07:31:06;98765.09;;;2.13;82.67
41596;BME280;27283;52.504;13.358;2024-01-15T07:33:38;98777.53;;;2.13;81.81
41596;BME280;27283;52.504;13.358;2024-01-15T07:36:12;98772.53;;;2.10;82.30
41596;BME280;27283;52.504;13.358;2024-01-15T07:38:44;98777.75;;;2.44;81.57
41596;BME280;27283;52.504;13.358;2024-01-15T07:41:17;98782.75;;;2.47;81.47
41596;BME280;27283;52.504;13.358;2024-01-15T07:43:49;98783.53;;;2.32;81.38
41596;BME280;27283;52.504;13.358;2024-01-15T07:46:25;98779.84;;;2.16;81.84
41596;BME280;27283;52.504;13.358;2024-01-15T07:48:57;98777.78;;;1.93;82.53
41596;BME280;27283;52.504;13.358;2024-01-15T07:51:30;98778.47;;;2.63;80.88
41596;BME280;27283;52.504;13.358;2024-01-15T07:54:03;98781.81;;;2.81;79.96
41596;BME280;27283;52.504;13.358;2024-01-15T07:56:53;98798.69;;;2.05;81.74
41596;BME280;27283;52.504;13.358;2024-01-15T07:59:26;98799.47;;;1.89;82.17
41596;BME280;27283;52.504;13.358;2024-01-15T08:02:02;98791.63;;;2.22;81.38
41596;BME280;27283;52.504;13.358;2024-01-15T08:04:36;98789.59;;;2.16;82.57
41596;BME280;27283;52.504;13.358;2024-01-15T08:07:10;98778.63;;;2.45;80.99
41596;BME280;27283;52.504;13.358;2024-01-15T08:09:42;98784.78;;;2.11;81.19
41596;BME280;27283;52.504;13.358;2024-01-15T08:12:17;98788.31;;;2.20;81.05
41596;BME280;27283;52.504;13.358;2024-01-15T08:14:49;98792.53;;;2.39;81.22
41596;BME280;27283;52.504;13.358;2024-01-15T08:17:25;98814.81;;;2.20;81.61
41596;BME280;27283;52.504;13.358;2024-01-15T08:19:59;98810.44;;;2.45;81.27
41596;BME280;27283;52.504;13.358;2024-01-15T08:22:36;98809.84;;;2.25;81.63
41596;BME280;27283;52.504;13.358;2024-01-15T08:25:09;98805.31;;;2.43;81.15
41596;BME280;27283;52.504;13.358;2024-01-15T08:27:43;98805.72;;;2.22;82.27
41596;BME280;27283;52.504;13.358;2024-01-15T08:30:16;98795.06;;;2.06;82.14
41596;BME280;27283;52.504;13.358;2024-01-15T08:32:52;98790.72;;;1.97;82.75
41596;BME280;27283;52.504;13.358;2024-01-15T08:35:36;98786.09;;;2.50;81.06
41596;BME280;27283;52.504;13.358;2024-01-15T08:38:09;98796.59;;;2.25;81.65
41596;BME280;27283;52.504;13.358;2024-01-15T08:40:41;98804.97;;;2.04;82.69
41596;BME280;27283;52.504;13.358;2024-01-15T08:43:14;98800.91;;;2.26;81.70
41596;BME280;27283;52.504;13.358;2024-01-15T08:45:47;98809.69;;;2.18;81.93
41596;BME280;27283;52.504;13.358;2024-01-15T08:48:23;98805.34;;;1.83;81.99
41596;BME280;27283;52.504;13.358;2024-01-15T08:50:57;98810.44;;;2.53;81.43
41596;BME280;27283;52.504;13.358;2024-01-15T08:53:30;98813.09;;;2.45;80.38
41596;BME280;27283;52.504;13.358;2024-01-15T08:56:03;98818.75;;;2.50;80.90
41596;BME280;27283;52.504;13.358;2024-01-15T08:58:39;98813.09;;;2.45;81.07
41596;BME280;27283;52.504;13.358;2024-01-15T09:01:19;98820.94;;;2.12;81.38
41596;BME280;27283;52.504;13.358;2024-01-15T09:03:56;98814.97;;;2.10;82.01
41596;BME280;27283;52.504;13.358;2024-01-15T09:06:29;98817.53;;;2.36;81.27
41596;BME280;27283;52.504;13.358;2024-01-15T09:09:03;98823.50;;;2.30;82.18
41596;BME280;27283;52.504;13.358;2024-01-15T09:11:41;98818.34;;;2.37;82.48
41596;BME280;27283;52.504;13.358;2024-01-15T09:14:15;98816.19;;;2.32;81.28
41596;BME280;27283;52.504;13.358;2024-01-15T09:17:04;98828.06;;;2.11;82.40
41596;BME280;27283;52.504;13.358;2024-01-15T09:19:40;98833.16;;;2.47;80.64
41596;BME280;27283;52.504;13.358;2024-01-15T09:22:14;98823.97;;;2.34;81.53
41596;BME280;27283;52.504;13.358;2024-01-15T09:24:48;98848.53;;;2.36;82.95
41596;BME280;27283;52.504;13.358;2024-01-15T09:27:21;98831.56;;;2.20;82.76
41596;BME280;27283;52.504;13.358;2024-01-15T09:29:56;98839.44;;;2.04;83.37
41596;BME280;27283;52.504;13.358;2024-01-15T09:32:28;98837.97;;;2.09;82.10
41596;BME280;27283;52.504;13.358;2024-01-15T09:35:06;98861.72;;;2.54;81.11
41596;BME280;27283;52.504;13.358;2024-01-15T09:37:41;98861.88;;;2.52;80.61
41596;BME280;27283;52.504;13.358;2024-01-15T09:40:20;98850.34;;;2.35;81.83
41596;BME280;27283;52.504;13.358;2024-01-15T09:42:53;98838.44;;;2.39;81.31
41596;BME280;27283;52.504;13.358;2024-01-15T09:45:27;98843.31;;;2.52;80.59
41596;BME280;27283;52.504;13.358;2024-01-15T09:48:05;98833.84;;;2.50;81.34
41596;BME280;27283;52.504;13.358;2024-01-15T09:50:41;98836.13;;;2.44;81.92
41596;BME280;27283;52.504;13.358;2024-01-15T09:53:15;98845.53;;;2.81;80.49
41596;BME280;27283;52.504;13.358;2024-01-15T09:55:50;98838.00;;;2.52;80.34
41596;BME280;27283;52.504;13.358;2024-01-15T09:58:23;98843.06;;;3.21;79.16
41596;BME280;27283;52.504;13.358;2024-01-15T10:00:57;98843.09;;;3.29;78.09
41596;BME280;27283;52.504;13.358;2024-01-15T10:03:36;98833.78;;;3.17;79.30
41596;BME280;27283;52.504;13.358;2024-01-15T10:06:16;98834.44;;;3.03;77.29
41596;BME280;27283;52.504;13.358;2024-01-15T10:08:51;98836.09;;;2.87;79.32
41596;BME280;27283;52.504;13.358;2024-01-15T10:11:25;98828.22;;;2.61;79.74
41596;BME280;27283;52.504;13.358;2024-01-15T10:14:01;98821.00;;;3.12;78.45
41596;BME280;27283;52.504;13.358;2024-01-15T10:16:35;98825.13;;;3.40;78.09
41596;BME280;27283;52.504;13.358;2024-01-15T10:19:08;98819.44;;;2.69;80.17
41596;BME280;27283;52.504;13.358;2024-01-15T10:21:45;98812.34;;;2.77;80.33
41596;BME280;27283;52.504;13.358;2024-01-15T10:24:20;98824.44;;;2.80;78.41
41596;BME280;27283;52.504;13.358;2024-01-15T10:27:05;98823.00;;;3.10;77.99
41596;BME280;27283;52.504;13.358;2024-01-15T10:30:05;98813.88;;;2.96;78.96
41596;BME280;27283;52.504;13.358;2024-01-15T10:33:22;98819.00;;;3.39;77.93
41596;BME280;27283;52.504;13.358;2024-01-15T10:36:32;98822.00;;;3.11;78.01
41596;BME280;27283;52.504;13.358;2024-01-15T10:47:14;98807.19;;;2.68;79.53
41596;BME280;27283;52.504;13.358;2024-01-15T10:49:48;98812.03;;;2.89;78.76
41596;BME280;27283;52.504;13.358;2024-01-15T10:52:22;98807.03;;;2.77;78.71
41596;BME280;27283;52.504;13.358;2024-01-15T10:54:59;98812.53;;;2.84;77.48
41596;BME280;27283;52.504;13.358;2024-01-15T10:57:41;98817.34;;;3.30;76.28
41596;BME280;27283;52.504;13.358;2024-01-15T11:00:15;98818.81;;;2.91;77.75
41596;BME280;27283;52.504;13.358;2024-01-15T11:02:51;98810.69;;;3.09;76.90
41596;BME280;27283;52.504;13.358;2024-01-15T11:05:25;98814.53;;;2.90;77.51
41596;BME280;27283;52.504;13.358;2024-01-15T11:07:58;98811.88;;;3.07;77.08
41596;BME280;27283;52.504;13.358;2024-01-15T11:10:38;98821.50;;;3.08;77.55
41596;BME280;27283;52.504;13.358;2024-01-15T11:13:19;98812.00;;;2.80;77.58
41596;BME280;27283;52.504;13.358;2024-01-15T11:16:00;98815.03;;;3.10;77.31
41596;BME280;27283;52.504;13.358;2024-01-15T11:18:41;98832.59;;;2.95;77.82
41596;BME280;27283;52.504;13.358;2024-01-15T11:21:26;98819.09;;;2.63;79.37
41596;BME280;27283;52.504;13.358;2024-01-15T11:24:00;98820.03;;;3.22;77.83
41596;BME280;27283;52.504;13.358;2024-01-15T11:26:44;98828.56;;;2.66;79.60
41596;BME280;27283;52.504;13.358;2024-01-15T11:29:30;98821.75;;;2.72;80.65
41596;BME280;27283;52.504;13.358;2024-01-15T11:32:07;98831.66;;;2.45;81.96
41596;BME280;27283;52.504;13.358;2024-01-15T11:34:54;98829.81;;;3.13;80.77
41596;BME280;27283;52.504;13.358;2024-01-15T11:37:56;98827.41;;;2.69;81.48
41596;BME280;27283;52.504;13.358;2024-01-15T11:40:37;98836.81;;;2.55;82.37
41596;BME280;27283;52.504;13.358;2024-01-15T11:43:12;98822.03;;;2.44;83.66
41596;BME280;27283;52.504;13.358;2024-01-15T11:45:52;98835.63;;;2.41;85.88
41596;BME280;27283;52.504;13.358;2024-01-15T11:48:35;98834.47;;;2.43;87.14
41596;BME280;27283;52.504;13.358;2024-01-15T11:51:20;98831.91;;;1.91;88.59
41596;BME280;27283;52.504;13.358;2024-01-15T11:53:57;98834.19;;;2.12;88.84
41596;BME280;27283;52.504;13.358;2024-01-15T11:56:35;98836.16;;;2.10;90.24
41596;BME280;27283;52.504;13.358;2024-01-15T11:59:08;98839.56;;;1.94;90.18
41596;BME280;27283;52.504;13.358;2024-01-15T12:01:42;98842.22;;;2.28;89.62
41596;BME280;27283;52.504;13.358;2024-01-15T12:04:15;98849.75;;;2.07;88.46
41596;BME280;27283;52.504;13.358;2024-01-15T12:06:52;98847.69;;;2.27;88.70
41596;BME280;27283;52.504;13.358;2024-01-15T12:09:25;98836.16;;;2.10;89.28
41596;BME280;27283;52.504;13.358;2024-01-15T12:12:10;98853.22;;;2.07;89.34
41596;BME280;27283;52.504;13.358;2024-01-15T12:14:46;98841.00;;;1.88;90.30
41596;BME280;27283;52.504;13.358;2024-01-15T12:17:24;98848.44;;;1.85;89.28
41596;BME280;27283;52.504;13.358;2024-01-15T12:20:07;98842.28;;;2.10;87.92
41596;BME280;27283;52.504;13.358;2024-01-15T12:22:43;98844.88;;;2.37;87.82
41596;BME280;27283;52.504;13.358;2024-01-15T12:25:30;98851.97;;;2.28;87.83
41596;BME280;27283;52.504;13.358;2024-01-15T12:28:04;98845.59;;;2.04;88.43
41596;BME280;27283;52.504;13.358;2024-01-15T12:30:40;98839.00;;;2.17;88.38
41596;BME280;27283;52.504;13.358;2024-01-15T12:33:21;98850.31;;;2.27;86.95
41596;BME280;27283;52.504;13.358;2024-01-15T12:35:55;98832.81;;;2.08;87.37
41596;BME280;27283;52.504;13.358;2024-01-15T12:38:31;98843.50;;;2.16;86.59
41596;BME280;27283;52.504;13.358;2024-01-15T12:41:04;98854.69;;;2.36;87.70
41596;BME280;27283;52.504;13.358;2024-01-15T12:43:37;98854.34;;;2.05;88.87
41596;BME280;27283;52.504;13.358;2024-01-15T12:46:11;98858.53;;;2.07;90.44
41596;BME280;27283;52.504;13.358;2024-01-15T12:48:44;98871.16;;;1.61;93.12
41596;BME280;27283;52.504;13.358;2024-01-15T12:51:24;98859.91;;;1.67;94.30
41596;BME280;27283;52.504;13.358;2024-01-15T12:54:00;98856.19;;;1.34;94.84
41596;BME280;27283;52.504;13.358;2024-01-15T12:56:36;98877.81;;;1.91;93.70
41596;BME280;27283;52.504;13.358;2024-01-15T12:59:11;98875.19;;;1.73;94.45
41596;BME280;27283;52.504;13.358;2024-01-15T13:01:44;98873.91;;;1.77;93.76
41596;BME280;27283;52.504;13.358;2024-01-15T13:05:00;98880.88;;;2.05;93.20
41596;BME280;27283;52.504;13.358;2024-01-15T13:08:28;98879.78;;;1.63;93.53
41596;BME280;27283;52.504;13.358;2024-01-15T13:23:34;98898.22;;;2.25;91.64
41596;BME280;27283;52.504;13.358;2024-01-15T13:26:14;98891.63;;;2.03;90.92
41596;BME280;27283;52.504;13.358;2024-01-15T13:28:47;98908.31;;;1.69;91.52
41596;BME280;27283;52.504;13.358;2024-01-15T13:31:21;98898.03;;;1.92;89.88
41596;BME280;27283;52.504;13.358;2024-01-15T13:33:54;98899.34;;;2.15;89.72
41596;BME280;27283;52.504;13.358;2024-01-15T13:36:30;98901.97;;;1.88;89.41
41596;BME280;27283;52.504;13.358;2024-01-15T13:39:06;98901.41;;;2.03;89.19
41596;BME280;27283;52.504;13.358;2024-01-15T13:41:40;98915.56;;;1.67;91.60
41596;BME280;27283;52.504;13.358;2024-01-15T13:44:14;98920.63;;;1.79;92.17
41596;BME280;27283;52.504;13.358;2024-01-15T13:46:48;98912.69;;;2.05;92.42
41596;BME280;27283;52.504;13.358;2024-01-15T13:49:22;98933.56;;;1.82;91.77
41596;BME280;27283;52.504;13.358;2024-01-15T13:51:55;98931.97;;;2.15;91.35
41596;BME280;27283;52.504;13.358;2024-01-15T13:54:31;98928.47;;;1.88;90.60
41596;BME280;27283;52.504;13.358;2024-01-15T13:57:18;98939.41;;;2.11;89.18
41596;BME280;27283;52.504;13.358;2024-01-15T13:59:52;98932.00;;;1.97;89.49
41596;BME280;27283;52.504;13.358;2024-01-15T14:02:25;98939.13;;;2.23;89.04